Time;durP1;ratioP1;P1;durP2;ratioP2;P2;SDS_P1;SDS_P2;PMS_P1;PMS_P2;Temp;Humidity;BMP_temperature;BMP_pressure;BME280_temperature;BME280_humidity;BME280_pressure;Samples;Min_cycle;Max_cycle;Signal;HPM_P1;HPM_P2
2022/03/29 06:07:44;;;;;;;2.83;2.52;;;;;;;18.87;42.26;98962.08;1942614;72;28504;-65
2022/03/29 06:10:32;;;;;;;3.72;2.60;;;;;;;19.22;41.73;98953.68;1902014;75;28085;-65
2022/03/29 06:13:20;;;;;;;2.85;2.30;;;;;;;20.03;40.48;98962.04;1889940;75;28488;-66
2022/03/29 06:16:09;;;;;;;3.20;2.30;;;;;;;20.68;39.33;98959.19;1891420;75;28669;-66
2022/03/29 06:18:58;;;;;;;2.87;2.58;;;;;;;21.22;38.27;98960.80;1874040;75;28186;-69
2022/03/29 06:21:46;;;;;;;3.40;2.10;;;;;;;21.65;37.46;98963.66;1869627;76;28570;-67
2022/03/29 06:24:34;;;;;;;2.80;2.60;;;;;;;21.99;36.90;98955.38;1879343;75;28138;-66
2022/03/29 06:27:23;;;;;;;2.52;2.30;;;;;;;22.25;36.41;98962.17;1880384;75;28229;-66
2022/03/29 06:30:12;;;;;;;3.12;2.30;;;;;;;22.48;36.03;98970.80;1895932;73;28202;-68
2022/03/29 06:33:02;;;;;;;2.50;2.30;;;;;;;22.69;35.75;98966.00;1868829;75;28116;-67
2022/03/29 06:35:51;;;;;;;2.50;2.17;;;;;;;22.84;35.55;98962.16;1891633;75;28185;-65
2022/03/29 06:38:39;;;;;;;3.30;2.20;;;;;;;23.07;35.17;98953.77;1880048;74;28099;-67
2022/03/29 06:41:28;;;;;;;2.60;2.40;;;;;;;23.07;35.17;98953.77;1875763;75;28159;-67
2022/03/29 06:44:17;;;;;;;2.72;2.25;;;;;;;23.16;35.05;98952.79;1894153;75;28048;-66
2022/03/29 06:47:06;;;;;;;2.83;2.30;;;;;;;23.23;34.93;98950.17;1880471;75;28051;-66
2022/03/29 06:49:55;;;;;;;2.58;2.37;;;;;;;23.28;34.93;98944.77;1874352;75;28214;-65
2022/03/29 06:52:46;;;;;;;2.42;2.20;;;;;;;23.34;34.87;98952.50;1883825;75;28261;-65
2022/03/29 06:55:35;;;;;;;2.45;2.25;;;;;;;23.38;34.80;98944.92;1876684;75;28112;-66
2022/03/29 06:58:24;;;;;;;4.08;2.50;;;;;;;23.43;34.75;98941.98;1890856;75;28156;-65
2022/03/29 07:01:12;;;;;;;3.65;2.50;;;;;;;23.49;34.65;98943.17;1891276;75;28083;-65
2022/03/29 07:04:02;;;;;;;2.72;2.42;;;;;;;23.51;34.57;98936.89;1872612;75;38563;-65
2022/03/29 07:06:50;;;;;;;2.47;2.30;;;;;;;23.55;34.51;98934.48;1883487;74;28090;-65
2022/03/29 07:12:50;;;;;;;2.50;2.30;;;;;;;23.58;34.42;98932.58;1888988;74;28411;-65
2022/03/29 07:15:39;;;;;;;2.45;2.27;;;;;;;23.59;34.38;98927.39;1900778;74;28024;-65
2022/03/29 07:18:28;;;;;;;2.50;2.20;;;;;;;23.59;34.34;98921.91;1895610;74;28242;-65
2022/03/29 07:21:16;;;;;;;3.92;2.25;;;;;;;23.58;34.31;98917.50;1888505;74;28134;-65
2022/03/29 07:24:06;;;;;;;3.55;2.60;;;;;;;23.59;34.29;98921.91;1895087;74;28155;-65
2022/03/29 07:26:54;;;;;;;2.30;2.10;;;;;;;23.60;34.27;98918.91;1890115;74;28184;-65
2022/03/29 07:29:43;;;;;;;3.80;2.65;;;;;;;23.60;34.27;98916.70;1876261;76;28081;-65
2022/03/29 07:32:32;;;;;;;2.40;2.20;;;;;;;23.60;34.20;98923.02;1900299;74;28115;-65
2022/03/29 07:35:22;;;;;;;2.50;2.30;;;;;;;23.60;34.21;98916.16;1901725;74;28170;-65
2022/03/29 07:38:11;;;;;;;2.37;2.17;;;;;;;23.62;34.14;98909.08;1899929;74;28154;-64
2022/03/29 07:40:59;;;;;;;2.43;2.30;;;;;;;23.62;34.11;98904.39;1889627;74;28066;-65
2022/03/29 07:43:47;;;;;;;2.75;2.25;;;;;;;23.63;34.08;98907.97;1884935;74;28067;-65
2022/03/29 07:46:36;;;;;;;3.30;2.33;;;;;;;23.62;34.08;98919.47;1899894;74;28115;-65
2022/03/29 07:49:24;;;;;;;2.20;2.10;;;;;;;23.63;34.04;98910.18;1897086;74;28117;-65
2022/03/29 07:52:14;;;;;;;2.60;2.40;;;;;;;23.63;34.04;98907.97;1900524;74;28126;-65
2022/03/29 07:55:04;;;;;;;2.60;2.20;;;;;;;23.64;33.99;98901.42;1904434;74;28126;-65
2022/03/29 07:57:53;;;;;;;2.50;2.30;;;;;;;23.65;33.96;98909.38;1890595;74;28221;-66
2022/03/29 08:00:41;;;;;;;2.40;2.20;;;;;;;23.65;33.96;98900.31;1892715;74;28156;-65
2022/03/29 08:03:32;;;;;;;2.47;2.27;;;;;;;23.66;33.88;98897.88;1889151;74;28028;-65
2022/03/29 08:06:19;;;;;;;3.10;2.47;;;;;;;23.67;33.88;98891.28;1903551;74;28180;-64
2022/03/29 08:09:09;;;;;;;2.62;2.22;;;;;;;23.67;33.84;98900.88;1910731;74;28052;-65
2022/03/29 08:11:57;;;;;;;2.70;2.35;;;;;;;23.69;33.81;98887.74;1891629;74;28078;-65
2022/03/29 08:14:45;;;;;;;2.62;2.42;;;;;;;23.66;33.85;98888.28;1889086;74;28081;-65
2022/03/29 08:17:35;;;;;;;2.60;2.30;;;;;;;23.64;33.78;98887.14;1909658;74;28046;-65
2022/03/29 08:20:23;;;;;;;2.70;2.50;;;;;;;23.71;33.72;98893.83;1896225;74;28079;-66
2022/03/29 08:23:12;;;;;;;2.50;2.30;;;;;;;23.67;33.74;98895.41;1882898;74;28140;-65
2022/03/29 08:26:01;;;;;;;2.50;2.30;;;;;;;23.69;33.73;98885.00;1905311;74;28153;-65
2022/03/29 08:28:50;;;;;;;2.70;2.17;;;;;;;23.70;33.65;98877.91;1881742;74;28619;-65
2022/03/29 08:31:40;;;;;;;2.40;2.20;;;;;;;23.71;33.64;98874.06;1894837;74;28086;-65
2022/03/29 08:34:28;;;;;;;2.60;2.40;;;;;;;23.70;33.62;98871.59;1890208;74;28085;-64
2022/03/29 08:37:18;;;;;;;2.67;2.40;;;;;;;23.71;33.58;98867.78;1906105;74;28104;-65
2022/03/29 08:40:13;;;;;;;2.40;2.30;;;;;;;23.70;33.60;98867.47;1893657;74;28221;-64
2022/03/29 08:43:01;;;;;;;2.45;2.25;;;;;;;23.69;33.62;98872.13;1901237;74;28023;-65
2022/03/29 08:45:50;;;;;;;2.30;2.20;;;;;;;23.70;33.57;98867.47;1899622;74;28160;-65
2022/03/29 08:48:39;;;;;;;2.77;2.50;;;;;;;23.72;33.56;98865.30;1884325;74;28163;-65
2022/03/29 08:51:28;;;;;;;2.70;2.20;;;;;;;23.71;33.52;98864.47;1889125;74;28166;-65
2022/03/29 08:54:16;;;;;;;2.30;2.10;;;;;;;23.71;33.52;98863.09;1910253;74;38812;-65
2022/03/29 08:57:05;;;;;;;2.50;2.30;;;;;;;23.73;33.52;98860.95;1901136;74;28152;-65
2022/03/29 08:59:54;;;;;;;2.77;2.20;;;;;;;23.73;33.49;98858.75;1911104;74;28156;-65
2022/03/29 09:02:42;;;;;;;2.22;2.12;;;;;;;23.74;33.46;98856.27;1892242;74;28116;-65
2022/03/29 09:05:31;;;;;;;2.52;2.33;;;;;;;23.74;33.44;98851.63;1892783;74;28115;-66
2022/03/29 09:08:19;;;;;;;2.50;2.30;;;;;;;23.73;33.41;98845.87;1907529;74;28072;-65
2022/03/29 09:11:08;;;;;;;2.40;2.20;;;;;;;23.75;33.41;98843.69;1888869;74;28668;-66
2022/03/29 09:14:04;;;;;;;2.42;2.33;;;;;;;23.76;33.42;98847.23;1907534;74;28031;-66
2022/03/29 09:16:53;;;;;;;2.35;2.20;;;;;;;23.76;33.37;98841.22;1876174;74;28152;-66
2022/03/29 09:19:51;;;;;;;2.60;2.40;;;;;;;23.75;33.41;98839.58;1878666;74;28246;-66
2022/03/29 09:22:43;;;;;;;2.42;2.20;;;;;;;23.75;33.34;98834.63;1902313;74;28094;-66
2022/03/29 09:25:46;;;;;;;2.50;2.30;;;;;;;23.73;33.38;98825.30;1899725;74;28326;-65
2022/03/29 09:28:38;;;;;;;2.33;2.10;;;;;;;23.75;33.35;98827.23;1903756;74;28036;-65
2022/03/29 09:31:28;;;;;;;2.50;2.30;;;;;;;23.77;33.36;98819.58;1910902;74;28416;-65
2022/03/29 09:34:19;;;;;;;2.55;2.35;;;;;;;23.78;33.33;98823.16;1895472;74;28205;-65
2022/03/29 09:37:07;;;;;;;2.30;2.10;;;;;;;23.78;33.32;98817.10;1903895;74;28046;-65
2022/03/29 09:39:58;;;;;;;3.05;2.40;;;;;;;23.75;33.31;98808.04;1898634;74;29986;-65
2022/03/29 09:43:02;;;;;;;2.33;2.20;;;;;;;23.80;33.25;98807.27;1888368;74;28109;-65
2022/03/29 09:45:55;;;;;;;2.40;2.20;;;;;;;23.80;33.25;98796.30;1889862;74;28071;-65
2022/03/29 09:48:44;;;;;;;2.33;2.22;;;;;;;23.76;33.27;98790.48;1891724;74;28216;-64
2022/03/29 09:51:33;;;;;;;7.20;3.10;;;;;;;23.78;33.28;98789.67;1889081;74;28113;-65
2022/03/29 09:54:21;;;;;;;2.35;2.15;;;;;;;23.77;33.24;98785.83;1910927;74;31951;-65
2022/03/29 09:57:10;;;;;;;2.30;2.10;;;;;;;23.79;33.20;98787.23;1889482;74;28106;-65
2022/03/29 09:59:58;;;;;;;2.30;2.20;;;;;;;23.78;33.21;98784.19;1883060;74;28194;-66
2022/03/29 10:02:48;;;;;;;2.22;2.12;;;;;;;23.79;33.19;98764.45;1890015;74;28181;-66
2022/03/29 10:05:38;;;;;;;2.70;2.50;;;;;;;23.81;33.18;98767.77;1912786;74;28123;-64
2022/03/29 10:11:43;;;;;;;2.20;2.10;;;;;;;23.83;33.15;98754.61;1882545;74;28137;-67
2022/03/29 10:14:34;;;;;;;2.35;2.15;;;;;;;23.78;33.11;98746.37;1858779;75;28114;-65
2022/03/29 10:17:24;;;;;;;2.90;2.30;;;;;;;23.78;33.19;98746.37;1877322;75;28236;-65
2022/03/29 10:20:13;;;;;;;2.50;2.30;;;;;;;23.79;33.17;98738.41;1863479;75;28129;-65
2022/03/29 10:23:03;;;;;;;2.80;2.30;;;;;;;23.81;33.09;98734.85;1892828;75;28248;-64
2022/03/29 10:25:54;;;;;;;2.50;2.30;;;;;;;23.80;33.10;98724.98;1875959;75;28117;-65
2022/03/29 10:28:43;;;;;;;2.42;2.33;;;;;;;23.83;33.08;98720.33;1869904;75;28122;-65
2022/03/29 10:31:39;;;;;;;2.55;2.35;;;;;;;23.81;33.08;98721.97;1868887;76;28121;-65
2022/03/29 10:34:37;;;;;;;2.50;2.30;;;;;;;23.81;33.05;98712.37;1871854;75;28192;-67
2022/03/29 10:37:27;;;;;;;2.92;2.35;;;;;;;23.80;33.08;98705.25;1857188;77;35181;-66
2022/03/29 10:40:16;;;;;;;2.67;2.47;;;;;;;23.80;33.06;98702.51;1892248;75;28141;-66
2022/03/29 10:43:32;;;;;;;2.50;2.40;;;;;;;23.82;33.05;98696.75;1890387;75;28111;-66
2022/03/29 10:46:26;;;;;;;2.62;2.33;;;;;;;23.84;32.99;98694.57;1891824;75;28051;-66
2022/03/29 10:49:34;;;;;;;2.62;2.42;;;;;;;23.80;33.04;98693.45;1870745;75;28076;-67
2022/03/29 10:52:25;;;;;;;2.47;2.37;;;;;;;23.81;33.03;98679.46;1880599;75;28043;-64
2022/03/29 10:55:17;;;;;;;2.60;2.40;;;;;;;23.80;33.04;98673.71;1885010;75;28165;-65
2022/03/29 10:58:16;;;;;;;2.60;2.40;;;;;;;23.80;33.04;98664.66;1886041;75;28075;-65
2022/03/29 11:01:15;;;;;;;2.58;2.40;;;;;;;23.80;33.01;98660.00;1869893;75;28183;-65
2022/03/29 11:04:10;;;;;;;2.75;2.50;;;;;;;23.81;33.00;98646.55;1884563;75;28097;-66
2022/03/29 11:07:12;;;;;;;2.50;2.30;;;;;;;23.84;32.98;98646.03;1869137;75;28104;-65
2022/03/29 11:10:19;;;;;;;3.70;2.60;;;;;;;23.85;32.96;98648.24;1878651;75;28156;-64
2022/03/29 11:13:30;;;;;;;2.60;2.40;;;;;;;23.82;32.95;98637.25;1857190;75;28128;-65
2022/03/29 11:16:30;;;;;;;2.62;2.42;;;;;;;23.83;32.96;98635.31;1896856;75;28040;-67
2022/03/29 11:19:48;;;;;;;2.70;2.47;;;;;;;23.80;32.97;98622.14;1868017;75;28700;-67
2022/03/29 11:22:40;;;;;;;2.47;2.35;;;;;;;23.80;32.96;98628.46;1875759;75;28114;-64
2022/03/29 11:25:29;;;;;;;2.58;2.37;;;;;;;23.79;32.96;98614.99;1877618;75;28106;-64
2022/03/29 11:28:18;;;;;;;2.70;2.50;;;;;;;23.82;32.96;98613.11;1861519;75;28190;-64
2022/03/29 11:31:07;;;;;;;2.45;2.33;;;;;;;23.84;32.90;98605.44;1890735;75;28121;-65
2022/03/29 11:33:57;;;;;;;2.65;2.45;;;;;;;23.85;32.90;98586.53;1882099;75;28066;-65
2022/03/29 11:36:45;;;;;;;2.77;2.58;;;;;;;23.85;32.92;98581.05;1881396;75;28133;-65
2022/03/29 11:39:33;;;;;;;3.47;2.45;;;;;;;23.86;32.84;98578.56;1882960;75;32956;-65
2022/03/29 11:42:21;;;;;;;2.60;2.50;;;;;;;23.88;32.84;98562.66;1899239;75;28046;-65
2022/03/29 11:45:10;;;;;;;2.37;2.27;;;;;;;23.88;32.79;98559.92;1885488;75;28381;-66
2022/03/29 11:48:11;;;;;;;2.60;2.40;;;;;;;23.89;32.82;98561.59;1889328;75;28591;-64
2022/03/29 11:51:01;;;;;;;2.65;2.45;;;;;;;23.91;32.76;98560.77;1886572;75;28219;-67
2022/03/29 11:53:58;;;;;;;2.60;2.40;;;;;;;23.91;32.80;98552.55;1864753;75;28156;-64
2022/03/29 11:56:46;;;;;;;3.58;2.60;;;;;;;23.91;32.77;98533.34;1857137;77;28139;-65
2022/03/29 11:59:35;;;;;;;2.62;2.42;;;;;;;23.89;32.78;98525.93;1888620;75;28043;-64
2022/03/29 12:02:25;;;;;;;2.50;2.30;;;;;;;23.92;32.75;98529.52;1872615;75;28521;-65
2022/03/29 12:05:25;;;;;;;2.85;2.65;;;;;;;23.90;32.75;98513.31;1890556;75;28188;-67
2022/03/29 12:08:13;;;;;;;2.77;2.58;;;;;;;23.92;32.69;98513.06;1864442;75;28132;-66
2022/03/29 12:11:12;;;;;;;2.77;2.57;;;;;;;23.93;32.68;98512.78;1859801;75;28148;-66
2022/03/29 12:14:16;;;;;;;2.60;2.40;;;;;;;23.94;32.66;98515.79;1881190;75;28177;-65
2022/03/29 12:17:08;;;;;;;2.58;2.37;;;;;;;23.93;32.68;98505.09;1877605;75;28149;-65
2022/03/29 12:19:56;;;;;;;2.70;2.47;;;;;;;23.92;32.71;98485.06;1848279;76;28100;-65
2022/03/29 12:22:44;;;;;;;2.62;2.42;;;;;;;23.93;32.72;98479.04;1857204;77;28192;-65
2022/03/29 12:25:33;;;;;;;2.62;2.42;;;;;;;23.94;32.65;98486.98;1837774;77;28204;-65
2022/03/29 12:28:24;;;;;;;2.70;2.40;;;;;;;23.96;32.65;98488.11;1869091;76;36348;-65
2022/03/29 12:31:13;;;;;;;2.77;2.58;;;;;;;23.95;32.64;98467.25;1837724;77;28269;-65
2022/03/29 12:34:02;;;;;;;2.47;2.30;;;;;;;23.95;32.62;98452.99;1864725;76;28125;-65
2022/03/29 12:36:53;;;;;;;2.77;2.58;;;;;;;23.95;32.60;98444.77;1857285;77;28228;-65
2022/03/29 12:39:45;;;;;;;3.47;2.60;;;;;;;23.95;32.57;98454.91;1868844;76;28168;-64
2022/03/29 12:42:34;;;;;;;2.70;2.50;;;;;;;23.97;32.61;98453.55;1837068;77;28125;-64
2022/03/29 12:45:24;;;;;;;3.10;2.80;;;;;;;23.97;32.55;98443.11;1852787;77;28175;-64
2022/03/29 12:48:13;;;;;;;2.60;2.50;;;;;;;23.97;32.55;98440.38;1847008;77;28111;-65
2022/03/29 12:51:05;;;;;;;2.60;2.40;;;;;;;23.99;32.54;98447.81;1869186;76;28187;-65
2022/03/29 12:53:57;;;;;;;2.90;2.70;;;;;;;23.99;32.56;98430.78;1843803;76;28302;-65
2022/03/29 12:56:48;;;;;;;3.00;2.43;;;;;;;23.99;32.51;98430.78;1864686;76;28170;-64
2022/03/29 12:59:41;;;;;;;2.73;2.53;;;;;;;24.00;32.50;98435.73;1855718;77;28174;-66
2022/03/29 13:02:34;;;;;;;2.92;2.72;;;;;;;23.99;32.52;98414.89;1854262;76;28126;-65
2022/03/29 13:05:24;;;;;;;3.35;2.50;;;;;;;23.99;32.48;98403.92;1850541;76;28234;-65
2022/03/29 13:08:15;;;;;;;2.75;2.55;;;;;;;24.01;32.49;98407.22;1857141;77;28159;-65
2022/03/29 13:11:20;;;;;;;2.70;2.50;;;;;;;24.03;32.43;98402.28;1868968;76;28129;-65
2022/03/29 13:14:12;;;;;;;2.60;2.40;;;;;;;24.04;32.39;98396.52;1859251;75;28233;-65
2022/03/29 13:17:00;;;;;;;2.67;2.47;;;;;;;24.02;32.37;98397.33;1884901;75;28120;-66
2022/03/29 13:19:54;;;;;;;2.57;2.37;;;;;;;24.02;32.39;98378.67;1884671;75;28171;-66
2022/03/29 13:22:46;;;;;;;2.63;2.43;;;;;;;24.02;32.40;98363.04;1880829;75;28327;-65
2022/03/29 13:25:37;;;;;;;2.70;2.50;;;;;;;24.02;32.40;98359.47;1878668;75;28178;-64
2022/03/29 13:28:26;;;;;;;2.77;2.58;;;;;;;24.01;32.40;98357.84;1884633;75;28195;-66
2022/03/29 13:31:16;;;;;;;2.70;2.45;;;;;;;24.04;32.38;98368.25;1864554;75;28159;-65
2022/03/29 13:34:09;;;;;;;2.40;2.30;;;;;;;24.04;32.35;98366.34;1884174;75;28179;-65
2022/03/29 13:36:56;;;;;;;2.80;2.50;;;;;;;24.03;32.33;98357.02;1884887;75;28192;-66
2022/03/29 13:39:44;;;;;;;2.58;2.37;;;;;;;24.02;32.36;98336.15;1872198;75;28570;-65
2022/03/29 13:42:32;;;;;;;2.93;2.60;;;;;;;24.03;32.32;98341.39;1863930;75;28156;-64
2022/03/29 13:45:21;;;;;;;2.53;2.33;;;;;;;24.04;32.28;98332.05;1858572;75;28141;-65
2022/03/29 13:48:10;;;;;;;3.03;2.43;;;;;;;24.04;32.29;98333.95;1877553;75;28206;-65
2022/03/29 13:51:01;;;;;;;2.67;2.47;;;;;;;24.04;32.28;98325.72;1868208;75;28231;-65
2022/03/29 13:53:49;;;;;;;2.77;2.58;;;;;;;24.02;32.29;98320.52;1884380;75;28124;-64
2022/03/29 13:56:38;;;;;;;2.47;2.27;;;;;;;24.04;32.29;98322.98;1862484;75;28250;-65
2022/03/29 13:59:28;;;;;;;2.73;2.60;;;;;;;24.02;32.30;98322.44;1884333;75;28168;-65
2022/03/29 14:02:18;;;;;;;2.62;2.42;;;;;;;24.01;32.30;98322.17;1884339;75;28253;-64
2022/03/29 14:05:07;;;;;;;2.70;2.50;;;;;;;24.03;32.28;98314.49;1873758;75;28226;-65
2022/03/29 14:07:57;;;;;;;2.55;2.42;;;;;;;24.05;32.25;98305.44;1877476;75;30143;-64
2022/03/29 14:10:45;;;;;;;2.50;2.30;;;;;;;24.04;32.26;98304.61;1872392;75;28159;-64
2022/03/29 14:13:36;;;;;;;2.42;2.22;;;;;;;24.05;32.22;98298.58;1866111;75;32026;-64
2022/03/29 14:16:24;;;;;;;2.60;2.40;;;;;;;24.08;32.23;98286.27;1869844;75;28218;-65
2022/03/29 14:19:12;;;;;;;2.65;2.45;;;;;;;24.06;32.24;98276.95;1874125;75;28207;-65
2022/03/29 14:22:01;;;;;;;2.92;2.62;;;;;;;24.10;32.21;98281.33;1884734;75;28149;-64
2022/03/29 14:24:50;;;;;;;2.70;2.50;;;;;;;24.10;32.20;98288.19;1882598;75;28221;-65
2022/03/29 14:27:38;;;;;;;2.85;2.55;;;;;;;24.07;32.21;98289.56;1857525;75;28296;-65
2022/03/29 14:30:27;;;;;;;3.02;2.75;;;;;;;24.09;32.18;98285.98;1853069;75;28286;-64
2022/03/29 14:33:15;;;;;;;3.37;2.50;;;;;;;24.10;32.16;98282.70;1884384;75;28166;-65
2022/03/29 14:36:04;;;;;;;2.35;2.22;;;;;;;24.10;32.17;98262.13;1863516;75;28586;-65
2022/03/29 14:38:52;;;;;;;2.70;2.50;;;;;;;24.08;32.16;98265.16;1872434;75;28190;-64
2022/03/29 14:41:41;;;;;;;2.40;2.30;;;;;;;24.07;32.16;98253.89;1864295;75;28375;-64
2022/03/29 14:44:30;;;;;;;2.67;2.50;;;;;;;24.05;32.20;98266.49;1878341;75;28254;-65
2022/03/29 14:47:19;;;;;;;2.65;2.45;;;;;;;24.07;32.18;98262.13;1884667;75;28134;-65
2022/03/29 14:50:10;;;;;;;2.60;2.40;;;;;;;24.06;32.14;98268.73;1883111;75;28137;-64
2022/03/29 14:52:59;;;;;;;2.70;2.50;;;;;;;24.06;32.14;98253.64;1884702;75;28148;-64
2022/03/29 14:55:48;;;;;;;2.58;2.37;;;;;;;24.08;32.11;98251.44;1884639;75;28177;-66
2022/03/29 14:58:38;;;;;;;2.30;2.20;;;;;;;24.11;32.07;98241.84;1870213;75;28230;-64
2022/03/29 15:01:26;;;;;;;2.60;2.33;;;;;;;24.10;32.03;98238.27;1878168;75;28247;-65
2022/03/29 15:04:15;;;;;;;2.50;2.30;;;;;;;24.10;32.00;98227.30;1883508;75;28148;-65
2022/03/29 15:07:04;;;;;;;2.60;2.33;;;;;;;24.10;31.99;98214.95;1866878;75;28219;-65
2022/03/29 15:09:53;;;;;;;2.75;2.55;;;;;;;24.11;31.99;98209.72;1881312;75;28280;-65
2022/03/29 15:12:42;;;;;;;2.80;2.60;;;;;;;24.14;31.94;98202.31;1875577;75;28169;-65
2022/03/29 15:15:31;;;;;;;3.70;2.63;;;;;;;24.13;31.87;98206.17;1880208;74;28271;-65
2022/03/29 15:18:19;;;;;;;2.83;2.37;;;;;;;24.12;31.91;98210.00;1850577;76;28162;-65
2022/03/29 15:21:08;;;;;;;2.83;2.62;;;;;;;24.14;31.90;98205.59;1869224;76;28179;-65
2022/03/29 15:23:56;;;;;;;2.70;2.50;;;;;;;24.17;31.83;98211.38;1868909;76;28756;-65
2022/03/29 15:26:48;;;;;;;2.58;2.40;;;;;;;24.15;31.82;98208.09;1868917;76;28247;-64
2022/03/29 15:29:35;;;;;;;2.52;2.42;;;;;;;24.14;31.87;98206.43;1868757;76;28246;-65
2022/03/29 15:32:24;;;;;;;2.70;2.50;;;;;;;24.17;31.83;98196.83;1864070;76;28156;-65
2022/03/29 15:35:14;;;;;;;2.62;2.42;;;;;;;24.15;31.85;98190.25;1868371;76;28121;-67
2022/03/29 15:38:02;;;;;;;3.37;2.60;;;;;;;24.15;31.81;98199.03;1852507;76;28149;-65
2022/03/29 15:40:50;;;;;;;2.50;2.30;;;;;;;24.15;31.81;98189.42;1865807;76;28264;-65
2022/03/29 15:43:40;;;;;;;3.30;2.47;;;;;;;24.16;31.78;98187.77;1852067;76;28246;-65
2022/03/29 15:46:28;;;;;;;2.90;2.70;;;;;;;24.17;31.75;98188.59;1866420;76;28188;-67
2022/03/29 15:49:17;;;;;;;2.60;2.40;;;;;;;24.16;31.74;98185.56;1856433;76;28136;-65
2022/03/29 15:52:07;;;;;;;2.77;2.58;;;;;;;24.15;31.70;98175.16;1869162;76;28118;-65
2022/03/29 15:54:56;;;;;;;2.60;2.40;;;;;;;24.15;31.70;98178.45;1868751;76;28282;-64
2022/03/29 15:57:44;;;;;;;2.77;2.57;;;;;;;24.13;31.70;98180.66;1868857;76;28203;-65
2022/03/29 16:00:33;;;;;;;2.70;2.50;;;;;;;24.12;31.72;98175.70;1849753;76;28216;-65
2022/03/29 16:03:22;;;;;;;2.50;2.30;;;;;;;24.11;31.73;98178.73;1848172;76;28239;-65
2022/03/29 16:06:11;;;;;;;2.87;2.52;;;;;;;24.12;31.70;98187.22;1869037;76;28101;-65
2022/03/29 16:08:59;;;;;;;2.60;2.40;;;;;;;24.10;31.71;98172.96;1868882;76;28133;-64
2022/03/29 16:11:50;;;;;;;2.70;2.50;;;;;;;24.09;31.73;98174.05;1868980;76;28242;-65
2022/03/29 16:14:40;;;;;;;2.55;2.40;;;;;;;24.09;31.69;98173.51;1847571;76;28121;-64
2022/03/29 16:17:29;;;;;;;2.60;2.40;;;;;;;24.11;31.67;98173.25;1851793;75;28200;-65
2022/03/29 16:20:20;;;;;;;2.60;2.40;;;;;;;24.07;31.70;98167.48;1842301;77;28236;-65
2022/03/29 16:23:09;;;;;;;2.75;2.55;;;;;;;24.11;31.69;98160.33;1844734;76;28164;-65
2022/03/29 16:25:58;;;;;;;2.62;2.42;;;;;;;24.07;31.70;98159.25;1861564;76;28364;-65
2022/03/29 16:28:46;;;;;;;2.62;2.42;;;;;;;24.07;31.67;98155.13;1842291;76;28198;-65
2022/03/29 16:31:38;;;;;;;3.52;2.52;;;;;;;24.09;31.66;98161.70;1840369;77;28347;-65
2022/03/29 16:34:25;;;;;;;2.58;2.40;;;;;;;24.08;31.65;98150.47;1855362;77;28156;-65
2022/03/29 16:37:14;;;;;;;2.70;2.50;;;;;;;24.09;31.64;98149.36;1868926;76;28117;-65
2022/03/29 16:40:05;;;;;;;2.63;2.47;;;;;;;24.09;31.58;98139.22;1845965;77;28207;-65
2022/03/29 16:42:54;;;;;;;3.27;2.55;;;;;;;24.10;31.61;98142.24;1868050;76;28121;-66
2022/03/29 16:45:44;;;;;;;2.65;2.45;;;;;;;24.13;31.56;98135.38;1857018;77;28222;-65
2022/03/29 16:48:32;;;;;;;2.60;2.40;;;;;;;24.14;31.51;98132.35;1849434;77;28223;-65
2022/03/29 16:51:21;;;;;;;2.55;2.37;;;;;;;24.16;31.50;98130.15;1868988;76;28185;-65
2022/03/29 16:54:09;;;;;;;2.60;2.40;;;;;;;24.15;31.51;98129.89;1857621;76;28113;-65
2022/03/29 16:56:58;;;;;;;2.90;2.70;;;;;;;24.15;31.49;98138.12;1857246;77;28157;-65
2022/03/29 16:59:47;;;;;;;2.77;2.58;;;;;;;24.13;31.48;98122.50;1868202;76;28117;-65
2022/03/29 17:02:35;;;;;;;2.55;2.35;;;;;;;24.14;31.48;98127.41;1857249;77;28149;-65
2022/03/29 17:05:25;;;;;;;2.70;2.50;;;;;;;24.08;31.46;98116.19;1837740;77;28235;-66
2022/03/29 17:08:16;;;;;;;2.77;2.57;;;;;;;24.13;31.49;98113.44;1837788;76;28222;-65
2022/03/29 17:11:05;;;;;;;2.72;2.42;;;;;;;24.14;31.47;98121.38;1838171;76;28250;-66
2022/03/29 17:13:53;;;;;;;2.50;2.30;;;;;;;24.14;31.49;98129.61;1852266;76;28206;-65
2022/03/29 17:16:45;;;;;;;2.47;2.30;;;;;;;24.13;31.47;98121.13;1849418;76;28153;-65
2022/03/29 17:19:34;;;;;;;2.63;2.53;;;;;;;24.13;31.47;98134.02;1851549;74;28226;-65
2022/03/29 17:22:23;;;;;;;2.35;2.20;;;;;;;24.10;31.49;98130.44;1867938;76;28112;-65
2022/03/29 17:25:12;;;;;;;2.40;2.30;;;;;;;24.05;31.50;98121.64;1865330;75;28164;-75
2022/03/29 17:28:01;;;;;;;2.62;2.42;;;;;;;24.08;31.53;98123.05;1868836;76;28191;-65
2022/03/29 17:30:50;;;;;;;2.80;2.60;;;;;;;24.07;31.53;98122.75;1878387;76;28128;-65
2022/03/29 17:33:38;;;;;;;2.40;2.20;;;;;;;24.04;31.90;98122.73;1878487;76;28242;-65
2022/03/29 17:36:27;;;;;;;2.60;2.40;;;;;;;24.04;31.90;98122.73;1878611;76;28083;-65
2022/03/29 17:39:16;;;;;;;2.70;2.40;;;;;;;24.04;31.56;98126.84;1877834;76;28152;-65
2022/03/29 17:42:05;;;;;;;2.55;2.35;;;;;;;24.02;31.61;98120.81;1878592;76;28243;-65
2022/03/29 17:44:54;;;;;;;2.50;2.30;;;;;;;24.02;31.62;98131.78;1878448;76;28227;-65
2022/03/29 17:47:43;;;;;;;2.30;2.20;;;;;;;24.03;31.62;98129.33;1864236;76;28112;-64
2022/03/29 17:50:33;;;;;;;2.75;2.35;;;;;;;24.01;31.61;98128.79;1858872;76;28196;-65
2022/03/29 17:53:21;;;;;;;3.00;2.42;;;;;;;24.00;31.63;98135.36;1875936;76;28210;-65
2022/03/29 17:56:10;;;;;;;2.33;2.17;;;;;;;24.00;31.66;98138.10;1877638;76;28230;-66
2022/03/29 17:58:59;;;;;;;2.60;2.40;;;;;;;24.00;31.67;98138.10;1866899;76;38458;-64
2022/03/29 18:01:48;;;;;;;2.95;2.35;;;;;;;23.99;31.65;98137.84;1878498;76;28191;-65
2022/03/29 18:04:36;;;;;;;2.42;2.20;;;;;;;23.99;31.64;98135.90;1877208;76;28920;-66
2022/03/29 18:07:26;;;;;;;2.45;2.27;;;;;;;23.97;31.69;98135.90;1876945;76;28141;-65
2022/03/29 18:10:14;;;;;;;4.20;2.40;;;;;;;23.98;31.67;98137.02;1863900;76;28136;-65
2022/03/29 18:13:03;;;;;;;2.90;2.55;;;;;;;23.98;31.65;98136.19;1878259;76;28167;-63
2022/03/29 18:15:51;;;;;;;2.72;2.52;;;;;;;23.99;31.70;98141.96;1878483;76;28207;-66
2022/03/29 18:18:41;;;;;;;2.50;2.30;;;;;;;23.97;31.77;98144.13;1876820;76;28265;-65
2022/03/29 18:21:30;;;;;;;2.40;2.13;;;;;;;23.96;31.75;98137.02;1858147;76;28118;-65
2022/03/29 18:24:19;;;;;;;2.67;2.27;;;;;;;23.96;31.75;98146.08;1864601;76;28096;-65
2022/03/29 18:27:10;;;;;;;2.60;2.40;;;;;;;23.95;31.75;98140.30;1867452;76;28184;-64
2022/03/29 18:30:00;;;;;;;2.60;2.40;;;;;;;23.94;31.78;98144.13;1867496;76;28197;-65
2022/03/29 18:32:51;;;;;;;2.58;2.37;;;;;;;23.95;31.81;98156.76;1846107;76;33182;-65
2022/03/29 18:35:41;;;;;;;2.52;2.33;;;;;;;23.96;31.85;98143.88;1864598;76;28190;-65
2022/03/29 18:38:31;;;;;;;3.00;2.45;;;;;;;23.94;31.88;98150.98;1859047;76;28208;-64
2022/03/29 18:41:20;;;;;;;2.40;2.20;;;;;;;23.96;31.86;98157.59;1867369;76;28138;-65
2022/03/29 18:44:10;;;;;;;3.30;2.45;;;;;;;23.98;31.83;98158.13;1856844;76;28575;-65
2022/03/29 18:46:59;;;;;;;3.13;2.30;;;;;;;23.98;31.85;98162.25;1866197;76;28121;-65
2022/03/29 18:49:50;;;;;;;3.33;2.60;;;;;;;23.95;31.89;98164.16;1859007;76;28117;-63
2022/03/29 18:52:44;;;;;;;3.80;2.60;;;;;;;23.96;31.89;98178.16;1869319;76;28169;-65
2022/03/29 18:55:31;;;;;;;2.60;2.40;;;;;;;23.96;31.88;98157.59;1865485;76;28152;-64
2022/03/29 18:58:23;;;;;;;2.70;2.40;;;;;;;23.95;31.88;98169.64;1868098;76;32049;-64
2022/03/29 19:01:13;;;;;;;3.58;2.40;;;;;;;23.93;31.91;98171.84;1859522;76;28196;-64
2022/03/29 19:04:03;;;;;;;2.90;2.40;;;;;;;23.94;31.90;98175.67;1869331;76;28144;-65
2022/03/29 19:06:53;;;;;;;2.75;2.42;;;;;;;23.93;31.92;98173.22;1869500;76;28189;-65
2022/03/29 19:09:45;;;;;;;2.80;2.50;;;;;;;23.93;31.94;98177.33;1869304;76;28102;-64
2022/03/29 19:12:35;;;;;;;2.60;2.40;;;;;;;23.93;31.95;98182.27;1869070;76;28169;-65
2022/03/29 19:15:27;;;;;;;3.37;2.62;;;;;;;23.93;31.95;98189.67;1869402;76;38509;-64
2022/03/29 19:18:18;;;;;;;2.77;2.58;;;;;;;23.96;31.95;98195.98;1849643;76;28534;-64
2022/03/29 19:21:07;;;;;;;2.50;2.30;;;;;;;23.94;31.98;98190.76;1876335;75;28144;-64
2022/03/29 19:23:58;;;;;;;2.67;2.47;;;;;;;23.93;31.95;98194.62;1878547;76;28266;-64
2022/03/29 19:26:49;;;;;;;2.87;2.60;;;;;;;23.95;31.56;98201.19;1878768;76;28333;-64
2022/03/29 19:29:40;;;;;;;2.60;2.40;;;;;;;23.95;31.56;98201.19;1859321;76;28185;-63
2022/03/29 19:32:30;;;;;;;2.45;2.25;;;;;;;23.93;32.00;98200.64;1872741;76;28216;-64
2022/03/29 19:35:26;;;;;;;3.20;2.60;;;;;;;23.95;31.98;98199.81;1860376;76;28144;-65